createdAt,value
2023-04-14T00:00:55.214Z,100.00
2023-04-14T00:05:59.868Z,100.00
2023-04-14T00:11:04.460Z,100.00
2023-04-14T00:16:12.013Z,100.00
2023-04-14T00:21:16.620Z,100.00
2023-04-14T00:26:21.296Z,100.00
2023-04-14T00:31:27.648Z,100.00
2023-04-14T00:36:32.374Z,100.00
2023-04-14T00:41:38.109Z,100.00
2023-04-14T00:46:44.069Z,100.00
2023-04-14T00:51:49.413Z,100.00
2023-04-14T00:56:57.598Z,100.00
2023-04-14T01:02:03.760Z,100.00
2023-04-14T01:07:08.547Z,100.00
2023-04-14T01:12:28.047Z,100.00
2023-04-14T01:17:41.180Z,100.00
2023-04-14T01:22:50.535Z,100.00
2023-04-14T01:28:15.120Z,100.00
2023-04-14T01:33:26.514Z,100.00
2023-04-14T01:38:36.251Z,100.00
2023-04-14T01:43:43.198Z,100.00
2023-04-14T01:48:50.561Z,100.00
2023-04-14T01:53:56.648Z,100.00
2023-04-14T01:59:03.588Z,100.00
2023-04-14T02:04:11.214Z,100.00
2023-04-14T02:09:17.911Z,100.00
2023-04-14T02:14:23.924Z,100.00
2023-04-14T02:19:31.361Z,100.00
2023-04-14T02:24:35.752Z,100.00
2023-04-14T02:29:44.084Z,100.00
2023-04-14T02:35:03.615Z,100.00
2023-04-14T02:40:14.440Z,100.00
2023-04-14T02:45:24.264Z,100.00
2023-04-14T02:50:31.730Z,100.00
2023-04-14T02:55:51.606Z,100.00
2023-04-14T03:00:59.249Z,100.00
2023-04-14T03:06:06.513Z,100.00
2023-04-14T03:11:13.284Z,100.00
2023-04-14T03:16:20.685Z,100.00
2023-04-14T03:21:28.514Z,100.00
2023-04-14T03:26:34.814Z,100.00
2023-04-14T03:31:40.403Z,100.00
2023-04-14T03:36:48.911Z,100.00
2023-04-14T03:41:54.888Z,100.00
2023-04-14T03:47:02.350Z,100.00
2023-04-14T03:52:13.308Z,100.00
2023-04-14T03:57:18.931Z,100.00
2023-04-14T04:02:25.975Z,100.00
2023-04-14T04:07:33.865Z,100.00
2023-04-14T04:12:40.281Z,100.00
2023-04-14T04:17:48.313Z,100.00
2023-04-14T04:23:01.453Z,100.00
2023-04-14T04:28:06.804Z,100.00
2023-04-14T04:33:12.412Z,100.00
2023-04-14T04:38:18.642Z,100.00
2023-04-14T04:43:23.802Z,100.00
2023-04-14T04:48:28.702Z,100.00
2023-04-14T04:53:34.738Z,100.00
2023-04-14T04:58:38.878Z,100.00
2023-04-14T05:03:43.038Z,100.00
2023-04-14T05:08:48.791Z,100.00
2023-04-14T05:14:01.066Z,100.00
2023-04-14T05:19:08.701Z,100.00
2023-04-14T05:24:14.487Z,100.00
2023-04-14T05:29:18.810Z,100.00
2023-04-14T05:34:23.107Z,100.00
2023-04-14T05:39:28.673Z,100.00
2023-04-14T05:44:32.726Z,100.00
2023-04-14T05:49:36.871Z,100.00
2023-04-14T05:54:43.360Z,100.00
2023-04-14T05:59:47.623Z,100.00
2023-04-14T06:04:52.390Z,100.00
2023-04-14T06:09:58.060Z,100.00
2023-04-14T06:15:02.243Z,100.00
2023-04-14T06:20:07.372Z,100.00
2023-04-14T06:25:13.314Z,100.00
2023-04-14T06:30:17.418Z,100.00
2023-04-14T06:35:32.372Z,100.00
2023-04-14T06:40:39.014Z,100.00
2023-04-14T06:45:43.207Z,100.00
2023-04-14T06:50:55.397Z,100.00
2023-04-14T06:56:01.032Z,100.00
2023-04-14T07:01:05.926Z,100.00
2023-04-14T07:06:12.123Z,95.44
2023-04-14T07:11:18.089Z,81.25
2023-04-14T07:16:22.344Z,79.74
2023-04-14T07:21:26.577Z,70.68
2023-04-14T07:26:32.394Z,71.98
2023-04-14T07:31:38.243Z,78.51
2023-04-14T07:36:42.605Z,83.18
2023-04-14T07:41:48.176Z,84.45
2023-04-14T07:46:52.264Z,83.78
2023-04-14T07:51:57.084Z,84.98
2023-04-14T07:57:02.641Z,86.35
2023-04-14T08:02:06.945Z,87.44
2023-04-14T08:07:11.846Z,85.53
2023-04-14T08:12:17.761Z,83.67
2023-04-14T08:17:22.157Z,82.67
2023-04-14T08:22:26.714Z,84.07
2023-04-14T08:27:32.863Z,84.15
2023-04-14T08:32:37.645Z,83.41
2023-04-14T08:37:42.008Z,81.77
2023-04-14T08:42:47.703Z,76.59
2023-04-14T08:47:54.830Z,75.91
2023-04-14T08:53:02.870Z,74.71
2023-04-14T08:58:10.807Z,73.22
2023-04-14T09:03:15.764Z,72.99
2023-04-14T09:08:21.757Z,69.27
2023-04-14T09:13:28.862Z,67.62
2023-04-14T09:18:34.866Z,64.49
2023-04-14T09:23:41.980Z,63.77
2023-04-14T09:28:47.656Z,59.11
2023-04-14T09:33:52.558Z,55.20
2023-04-14T09:38:57.466Z,53.90
2023-04-14T09:44:10.234Z,54.19
2023-04-14T09:49:14.753Z,53.58
2023-04-14T09:54:25.336Z,53.54
2023-04-14T09:59:35.281Z,51.62
2023-04-14T10:04:39.663Z,52.53
2023-04-14T10:09:45.866Z,50.02
2023-04-14T10:14:51.816Z,49.57
2023-04-14T10:19:56.035Z,50.42
2023-04-14T10:25:00.796Z,49.86
2023-04-14T10:30:10.334Z,48.23
2023-04-14T10:35:17.813Z,48.28
2023-04-14T10:40:23.334Z,47.67
2023-04-14T10:45:29.146Z,45.13
2023-04-14T10:50:49.136Z,47.75
2023-04-14T10:55:56.048Z,49.49
2023-04-14T11:01:01.920Z,49.87
2023-04-14T11:06:06.771Z,51.38
2023-04-14T11:11:10.999Z,51.84
2023-04-14T11:16:30.430Z,51.67
2023-04-14T11:21:34.676Z,52.92
2023-04-14T11:26:40.113Z,50.79
2023-04-14T11:31:45.768Z,48.60
2023-04-14T11:36:50.773Z,47.13
2023-04-14T11:41:56.266Z,47.49
2023-04-14T11:47:02.150Z,46.56
2023-04-14T11:52:08.235Z,44.97
2023-04-14T11:57:12.741Z,42.90
2023-04-14T12:02:19.934Z,43.55
2023-04-14T12:07:24.500Z,42.99
2023-04-14T12:12:29.200Z,41.67
2023-04-14T12:17:35.561Z,42.41
2023-04-14T12:22:39.950Z,42.49
2023-04-14T12:27:44.403Z,41.88
2023-04-14T12:32:50.613Z,41.45
2023-04-14T12:37:54.813Z,41.58
2023-04-14T12:42:58.974Z,42.38
2023-04-14T12:48:04.573Z,42.82
2023-04-14T12:53:24.651Z,45.50
2023-04-14T12:58:31.088Z,44.99
2023-04-14T13:03:50.227Z,44.54
2023-04-14T13:08:55.286Z,43.94
2023-04-14T13:13:59.646Z,44.07
2023-04-14T13:19:05.721Z,44.40
2023-04-14T13:24:09.811Z,44.07
2023-04-14T13:29:14.492Z,42.96
2023-04-14T13:34:20.820Z,44.15
2023-04-14T13:39:24.963Z,45.00
2023-04-14T13:44:29.233Z,44.84
2023-04-14T13:49:35.055Z,46.64
2023-04-14T13:54:39.367Z,46.19
2023-04-14T13:59:43.763Z,46.39
2023-04-14T14:04:49.234Z,46.38
2023-04-14T14:09:53.746Z,47.11
2023-04-14T14:14:58.565Z,47.83
2023-04-14T14:20:04.489Z,48.17
2023-04-14T14:25:19.412Z,48.41
2023-04-14T14:30:25.857Z,48.44
2023-04-14T14:35:31.868Z,49.65
2023-04-14T14:40:36.277Z,49.35
2023-04-14T14:45:40.512Z,48.88
2023-04-14T14:50:46.675Z,49.43
2023-04-14T14:55:51.019Z,48.81
2023-04-14T15:00:55.383Z,49.63
2023-04-14T15:06:00.951Z,50.52
2023-04-14T15:11:05.517Z,50.71
2023-04-14T15:16:09.984Z,51.10
2023-04-14T15:21:15.720Z,51.02
2023-04-14T15:26:20.153Z,50.88
2023-04-14T15:31:24.539Z,51.08
2023-04-14T15:36:30.406Z,51.62
2023-04-14T15:41:36.289Z,50.97
2023-04-14T15:46:40.659Z,51.50
2023-04-14T15:51:46.144Z,51.99
2023-04-14T15:56:52.734Z,53.52
2023-04-14T16:01:58.156Z,55.16
2023-04-14T16:07:03.955Z,55.85
2023-04-14T16:12:08.236Z,55.18
2023-04-14T16:17:12.769Z,56.44
2023-04-14T16:22:18.630Z,57.27
2023-04-14T16:27:23.544Z,60.21
2023-04-14T16:32:29.951Z,58.92
2023-04-14T16:37:35.797Z,60.95
2023-04-14T16:42:40.236Z,65.17
2023-04-14T16:47:44.868Z,65.02
2023-04-14T16:52:50.639Z,71.51
2023-04-14T16:57:55.045Z,70.62
2023-04-14T17:02:59.554Z,72.66
2023-04-14T17:08:05.619Z,73.80
2023-04-14T17:13:10.265Z,77.79
2023-04-14T17:18:15.078Z,82.96
2023-04-14T17:23:21.647Z,86.59
2023-04-14T17:28:26.953Z,89.47
2023-04-14T17:33:31.262Z,89.37
2023-04-14T17:38:38.833Z,88.31
2023-04-14T17:43:43.176Z,89.70
2023-04-14T17:48:47.365Z,86.04
2023-04-14T17:53:53.023Z,87.38
2023-04-14T17:58:57.735Z,87.36
2023-04-14T18:04:04.422Z,88.74
2023-04-14T18:09:11.428Z,90.54
2023-04-14T18:14:16.159Z,97.88
2023-04-14T18:19:20.921Z,95.65
2023-04-14T18:29:34.786Z,93.29
2023-04-14T18:34:38.996Z,89.82
2023-04-14T18:39:45.076Z,89.22
2023-04-14T18:44:49.736Z,86.70
2023-04-14T18:49:54.239Z,84.00
2023-04-14T18:54:59.798Z,84.33
2023-04-14T19:00:04.896Z,82.04
2023-04-14T19:05:10.064Z,83.13
2023-04-14T19:10:16.616Z,82.10
2023-04-14T19:15:21.117Z,82.42
2023-04-14T19:20:26.875Z,82.75
2023-04-14T19:25:32.458Z,83.30
2023-04-14T19:30:38.126Z,84.53
2023-04-14T19:35:44.374Z,85.93
2023-04-14T19:40:50.657Z,86.88
2023-04-14T19:45:57.579Z,87.50
2023-04-14T19:51:04.238Z,88.21
2023-04-14T19:56:09.964Z,89.44
2023-04-14T20:01:14.368Z,89.26
2023-04-14T20:06:18.986Z,89.69
2023-04-14T20:11:27.940Z,90.48
2023-04-14T20:16:32.898Z,91.06
2023-04-14T20:21:37.117Z,91.75
2023-04-14T20:26:43.848Z,91.81
2023-04-14T20:31:48.727Z,92.25
2023-04-14T20:36:55.079Z,93.09
2023-04-14T20:42:00.955Z,93.61
2023-04-14T20:47:05.438Z,95.49
2023-04-14T20:52:10.129Z,95.49
2023-04-14T20:57:15.907Z,95.31
2023-04-14T21:02:20.260Z,96.31
2023-04-14T21:07:24.693Z,95.91
2023-04-14T21:12:36.030Z,95.58
2023-04-14T21:17:40.461Z,96.26
2023-04-14T21:22:44.580Z,96.59
2023-04-14T21:27:50.199Z,96.21
2023-04-14T21:32:54.393Z,96.47
2023-04-14T21:37:58.872Z,96.34
2023-04-14T21:43:04.390Z,96.05
2023-04-14T21:48:08.624Z,96.24
2023-04-14T21:53:13.308Z,97.12
2023-04-14T21:58:19.238Z,96.80
2023-04-14T22:03:23.650Z,96.66
2023-04-14T22:08:28.155Z,96.74
2023-04-14T22:13:33.805Z,98.71
2023-04-14T22:18:40.148Z,99.54
2023-04-14T22:23:45.047Z,99.97
2023-04-14T22:28:51.264Z,100.00
2023-04-14T22:33:55.413Z,100.00
2023-04-14T22:38:59.883Z,99.70
2023-04-14T22:44:06.953Z,99.42
2023-04-14T22:49:11.134Z,99.05
2023-04-14T22:54:15.360Z,99.23
2023-04-14T22:59:20.879Z,97.90
2023-04-14T23:04:26.343Z,99.89
2023-04-14T23:09:31.361Z,99.33
2023-04-14T23:14:37.011Z,98.90
2023-04-14T23:19:41.310Z,99.66
2023-04-14T23:24:46.032Z,100.00
2023-04-14T23:29:51.749Z,100.00
2023-04-14T23:34:55.868Z,100.00
2023-04-14T23:40:00.415Z,100.00
2023-04-14T23:45:07.253Z,100.00
2023-04-14T23:50:12.225Z,100.00
2023-04-14T23:55:16.627Z,100.00
